createdAt,value
2022-12-11T00:01:57.537Z,100.00
2022-12-11T00:04:24.434Z,100.00
2022-12-11T00:06:52.380Z,100.00
2022-12-11T00:09:20.791Z,100.00
2022-12-11T00:11:48.109Z,100.00
2022-12-11T00:14:15.267Z,100.00
2022-12-11T00:16:41.933Z,100.00
2022-12-11T00:19:08.611Z,100.00
2022-12-11T00:21:35.122Z,100.00
2022-12-11T00:24:01.591Z,100.00
2022-12-11T00:26:28.263Z,100.00
2022-12-11T00:28:57.036Z,100.00
2022-12-11T00:31:24.255Z,100.00
2022-12-11T00:33:51.392Z,100.00
2022-12-11T00:36:23.712Z,100.00
2022-12-11T00:38:50.886Z,100.00
2022-12-11T00:41:17.940Z,100.00
2022-12-11T00:43:44.764Z,100.00
2022-12-11T00:46:12.176Z,100.00
2022-12-11T00:48:38.981Z,100.00
2022-12-11T00:51:05.876Z,100.00
2022-12-11T00:53:32.446Z,100.00
2022-12-11T00:55:58.872Z,100.00
2022-12-11T00:58:25.384Z,100.00
2022-12-11T01:00:53.250Z,100.00
2022-12-11T01:03:20.004Z,100.00
2022-12-11T01:05:54.869Z,100.00
2022-12-11T01:08:21.594Z,100.00
2022-12-11T01:10:48.406Z,100.00
2022-12-11T01:13:14.932Z,100.00
2022-12-11T01:15:44.256Z,100.00
2022-12-11T01:18:15.591Z,100.00
2022-12-11T01:20:43.096Z,100.00
2022-12-11T01:23:12.497Z,100.00
2022-12-11T01:25:39.546Z,100.00
2022-12-11T01:28:06.628Z,100.00
2022-12-11T01:30:33.668Z,100.00
2022-12-11T01:33:00.887Z,100.00
2022-12-11T01:35:28.055Z,100.00
2022-12-11T01:37:54.606Z,100.00
2022-12-11T01:40:21.877Z,100.00
2022-12-11T01:42:48.404Z,100.00
2022-12-11T01:45:30.191Z,100.00
2022-12-11T01:48:09.492Z,100.00
2022-12-11T01:50:50.682Z,100.00
2022-12-11T01:53:21.139Z,100.00
2022-12-11T01:55:50.278Z,100.00
2022-12-11T01:58:18.439Z,100.00
2022-12-11T02:00:45.243Z,100.00
2022-12-11T02:03:12.626Z,100.00
2022-12-11T02:05:39.425Z,100.00
2022-12-11T02:08:07.694Z,100.00
2022-12-11T02:10:51.974Z,100.00
2022-12-11T02:13:31.440Z,100.00
2022-12-11T02:16:08.029Z,100.00
2022-12-11T02:18:58.456Z,100.00
2022-12-11T02:21:45.226Z,100.00
2022-12-11T02:24:27.163Z,100.00
2022-12-11T02:27:14.820Z,100.00
2022-12-11T02:29:47.370Z,100.00
2022-12-11T02:32:19.565Z,100.00
2022-12-11T02:35:06.366Z,100.00
2022-12-11T02:37:37.415Z,100.00
2022-12-11T02:40:07.794Z,100.00
2022-12-11T02:42:36.889Z,100.00
2022-12-11T02:45:06.603Z,100.00
2022-12-11T02:47:33.781Z,100.00
2022-12-11T02:50:03.497Z,100.00
2022-12-11T02:52:32.677Z,100.00
2022-12-11T02:55:01.229Z,100.00
2022-12-11T02:57:36.322Z,100.00
2022-12-11T03:00:04.704Z,100.00
2022-12-11T03:02:31.465Z,100.00
2022-12-11T03:04:59.489Z,100.00
2022-12-11T03:07:34.024Z,100.00
2022-12-11T03:10:00.629Z,100.00
2022-12-11T03:12:34.323Z,100.00
2022-12-11T03:15:03.459Z,100.00
2022-12-11T03:17:44.244Z,100.00
2022-12-11T03:20:25.886Z,100.00
2022-12-11T03:23:33.366Z,100.00
2022-12-11T03:26:05.940Z,100.00
2022-12-11T03:28:45.559Z,100.00
2022-12-11T03:31:19.765Z,100.00
2022-12-11T03:33:50.703Z,100.00
2022-12-11T03:36:30.418Z,100.00
2022-12-11T03:39:01.981Z,100.00
2022-12-11T03:41:32.184Z,100.00
2022-12-11T03:43:59.070Z,100.00
2022-12-11T03:46:33.358Z,100.00
2022-12-11T03:49:05.554Z,100.00
2022-12-11T03:51:33.230Z,100.00
2022-12-11T03:54:00.115Z,100.00
2022-12-11T03:56:29.989Z,100.00
2022-12-11T03:58:56.416Z,100.00
2022-12-11T04:01:23.096Z,100.00
2022-12-11T04:03:49.603Z,100.00
2022-12-11T04:06:16.132Z,100.00
2022-12-11T04:08:42.746Z,100.00
2022-12-11T04:11:28.980Z,100.00
2022-12-11T04:14:14.126Z,100.00
2022-12-11T04:16:40.565Z,100.00
2022-12-11T04:19:25.558Z,100.00
2022-12-11T04:22:10.527Z,100.00
2022-12-11T04:24:37.021Z,100.00
2022-12-11T04:27:03.635Z,100.00
2022-12-11T04:29:30.193Z,100.00
2022-12-11T04:31:56.678Z,100.00
2022-12-11T04:34:23.430Z,100.00
2022-12-11T04:36:50.473Z,100.00
2022-12-11T04:39:17.280Z,100.00
2022-12-11T04:41:44.058Z,100.00
2022-12-11T04:44:10.597Z,100.00
2022-12-11T04:46:37.093Z,100.00
2022-12-11T04:49:03.659Z,100.00
2022-12-11T04:51:30.069Z,100.00
2022-12-11T04:53:57.730Z,100.00
2022-12-11T04:56:24.333Z,100.00
2022-12-11T04:58:50.793Z,100.00
2022-12-11T05:01:20.658Z,100.00
2022-12-11T05:03:47.681Z,100.00
2022-12-11T05:06:14.535Z,100.00
2022-12-11T05:08:42.606Z,100.00
2022-12-11T05:11:11.694Z,100.00
2022-12-11T05:13:38.740Z,100.00
2022-12-11T05:16:07.311Z,100.00
2022-12-11T05:18:34.192Z,100.00
2022-12-11T05:21:06.945Z,100.00
2022-12-11T05:23:34.196Z,100.00
2022-12-11T05:26:04.102Z,100.00
2022-12-11T05:28:34.132Z,100.00
2022-12-11T05:31:22.759Z,100.00
2022-12-11T05:33:50.546Z,100.00
2022-12-11T05:36:20.760Z,100.00
2022-12-11T05:38:47.504Z,100.00
2022-12-11T05:41:17.217Z,100.00
2022-12-11T05:43:44.381Z,100.00
2022-12-11T05:46:14.221Z,100.00
2022-12-11T05:48:42.570Z,100.00
2022-12-11T05:51:10.181Z,100.00
2022-12-11T05:53:37.963Z,100.00
2022-12-11T05:56:11.606Z,100.00
2022-12-11T05:58:38.323Z,100.00
2022-12-11T06:01:14.189Z,100.00
2022-12-11T06:03:40.726Z,100.00
2022-12-11T06:06:07.496Z,100.00
2022-12-11T06:08:34.716Z,100.00
2022-12-11T06:11:01.881Z,100.00
2022-12-11T06:13:28.389Z,100.00
2022-12-11T06:15:54.871Z,100.00
2022-12-11T06:18:21.679Z,100.00
2022-12-11T06:20:48.286Z,100.00
2022-12-11T06:23:14.886Z,100.00
2022-12-11T06:25:41.596Z,100.00
2022-12-11T06:28:08.226Z,100.00
2022-12-11T06:30:37.637Z,100.00
2022-12-11T06:33:06.323Z,100.00
2022-12-11T06:35:35.124Z,100.00
2022-12-11T06:38:06.697Z,100.00
2022-12-11T06:40:33.133Z,100.00
2022-12-11T06:42:59.781Z,100.00
2022-12-11T06:45:26.247Z,100.00
2022-12-11T06:47:52.825Z,100.00
2022-12-11T06:50:19.267Z,100.00
2022-12-11T06:52:45.716Z,100.00
2022-12-11T06:55:12.555Z,100.00
2022-12-11T06:57:39.205Z,100.00
2022-12-11T07:00:06.417Z,100.00
2022-12-11T07:02:32.943Z,100.00
2022-12-11T07:04:59.515Z,100.00
2022-12-11T07:07:26.062Z,100.00
2022-12-11T07:09:52.709Z,100.00
2022-12-11T07:12:19.163Z,100.00
2022-12-11T07:14:45.747Z,100.00
2022-12-11T07:17:12.531Z,100.00
2022-12-11T07:19:39.144Z,100.00
2022-12-11T07:22:05.894Z,100.00
2022-12-11T07:24:32.525Z,100.00
2022-12-11T07:26:59.779Z,100.00
2022-12-11T07:29:26.260Z,100.00
2022-12-11T07:31:52.941Z,100.00
2022-12-11T07:34:19.485Z,100.00
2022-12-11T07:36:46.242Z,100.00
2022-12-11T07:39:12.889Z,100.00
2022-12-11T07:41:39.800Z,99.94
2022-12-11T07:44:06.335Z,99.87
2022-12-11T07:46:33.900Z,99.87
2022-12-11T07:49:03.556Z,99.80
2022-12-11T07:51:32.914Z,99.93
2022-12-11T07:54:07.247Z,99.89
2022-12-11T07:56:34.561Z,99.48
2022-12-11T07:59:02.994Z,99.44
2022-12-11T08:01:31.606Z,99.63
2022-12-11T08:03:58.213Z,99.41
2022-12-11T08:06:28.011Z,99.33
2022-12-11T08:08:55.915Z,99.06
2022-12-11T08:11:23.053Z,99.10
2022-12-11T08:13:49.870Z,98.94
2022-12-11T08:16:17.282Z,99.01
2022-12-11T08:18:45.326Z,99.05
2022-12-11T08:21:18.685Z,98.87
2022-12-11T08:23:45.674Z,98.85
2022-12-11T08:26:18.123Z,98.46
2022-12-11T08:28:44.668Z,98.42
2022-12-11T08:31:12.646Z,98.52
2022-12-11T08:33:39.941Z,98.40
2022-12-11T08:36:08.552Z,98.27
2022-12-11T08:38:35.523Z,98.52
2022-12-11T08:41:13.483Z,98.28
2022-12-11T08:43:40.978Z,98.50
2022-12-11T08:46:08.681Z,98.39
2022-12-11T08:48:36.780Z,98.68
2022-12-11T08:51:05.785Z,98.16
2022-12-11T08:53:33.058Z,98.35
2022-12-11T08:56:08.830Z,98.39
2022-12-11T08:58:35.829Z,98.05
2022-12-11T09:01:23.974Z,98.27
2022-12-11T09:03:52.311Z,98.28
2022-12-11T09:06:21.473Z,98.28
2022-12-11T09:08:52.641Z,97.98
2022-12-11T09:11:29.170Z,98.05
2022-12-11T09:13:55.617Z,97.79
2022-12-11T09:16:24.156Z,97.92
2022-12-11T09:18:52.596Z,97.97
2022-12-11T09:21:22.493Z,98.00
2022-12-11T09:23:50.207Z,97.83
2022-12-11T09:26:18.497Z,97.85
2022-12-11T09:28:46.973Z,97.84
2022-12-11T09:31:15.154Z,97.98
2022-12-11T09:33:41.636Z,97.29
2022-12-11T09:36:08.801Z,97.64
2022-12-11T09:38:36.537Z,97.43
2022-12-11T09:41:23.130Z,97.11
2022-12-11T09:44:16.324Z,96.96
2022-12-11T09:46:43.602Z,97.16
2022-12-11T09:49:39.872Z,97.04
2022-12-11T09:52:46.815Z,97.09
2022-12-11T09:55:20.485Z,97.09
2022-12-11T09:57:46.920Z,96.95
2022-12-11T10:00:16.206Z,97.16
2022-12-11T10:03:07.507Z,96.50
2022-12-11T10:05:46.168Z,96.54
2022-12-11T10:08:40.453Z,96.59
2022-12-11T10:11:44.469Z,96.18
2022-12-11T10:14:32.494Z,96.36
2022-12-11T10:17:19.484Z,96.22
2022-12-11T10:19:46.800Z,95.99
2022-12-11T10:22:24.491Z,95.60
2022-12-11T10:25:13.979Z,95.88
2022-12-11T10:27:41.417Z,95.56
2022-12-11T10:30:21.337Z,95.27
2022-12-11T10:33:02.889Z,95.49
2022-12-11T10:35:35.408Z,95.34
2022-12-11T10:38:31.154Z,95.25
2022-12-11T10:41:01.219Z,95.24
2022-12-11T10:43:35.882Z,95.14
2022-12-11T10:46:05.106Z,95.07
2022-12-11T10:48:31.588Z,95.49
2022-12-11T10:51:04.574Z,95.41
2022-12-11T10:53:34.456Z,95.44
2022-12-11T10:56:02.100Z,94.98
2022-12-11T10:58:33.947Z,95.39
2022-12-11T11:01:07.813Z,95.29
2022-12-11T11:03:36.649Z,95.46
2022-12-11T11:06:16.273Z,95.07
2022-12-11T11:08:49.110Z,95.60
2022-12-11T11:11:21.658Z,95.30
2022-12-11T11:13:48.454Z,95.34
2022-12-11T11:16:19.039Z,94.98
2022-12-11T11:18:56.014Z,95.04
2022-12-11T11:21:25.772Z,95.44
2022-12-11T11:23:54.072Z,95.32
2022-12-11T11:26:22.993Z,95.28
2022-12-11T11:28:53.953Z,94.88
2022-12-11T11:31:23.060Z,95.32
2022-12-11T11:33:56.947Z,95.37
2022-12-11T11:36:29.616Z,95.43
2022-12-11T11:38:59.010Z,95.45
2022-12-11T11:41:31.800Z,95.68
2022-12-11T11:44:03.320Z,94.93
2022-12-11T11:46:48.677Z,95.02
2022-12-11T11:49:24.084Z,94.98
2022-12-11T11:52:28.979Z,94.87
2022-12-11T11:55:10.101Z,94.74
2022-12-11T11:57:48.865Z,94.76
2022-12-11T12:00:20.728Z,94.31
2022-12-11T12:02:55.854Z,94.84
2022-12-11T12:05:42.183Z,94.59
2022-12-11T12:08:31.153Z,94.22
2022-12-11T12:11:05.457Z,94.54
2022-12-11T12:13:52.349Z,94.36
2022-12-11T12:16:54.082Z,94.23
2022-12-11T12:19:26.773Z,94.16
2022-12-11T12:21:54.735Z,94.43
2022-12-11T12:24:37.265Z,94.22
2022-12-11T12:27:51.468Z,94.36
2022-12-11T12:30:21.978Z,93.90
2022-12-11T12:33:07.021Z,94.31
2022-12-11T12:35:38.749Z,94.10
2022-12-11T12:38:17.773Z,93.96
2022-12-11T12:41:14.329Z,94.02
2022-12-11T12:43:57.329Z,94.36
2022-12-11T12:46:34.237Z,94.22
2022-12-11T12:49:02.709Z,94.59
2022-12-11T12:51:30.851Z,93.99
2022-12-11T12:54:05.573Z,93.79
2022-12-11T12:56:38.126Z,94.11
2022-12-11T12:59:04.585Z,93.60
2022-12-11T13:01:31.626Z,93.99
2022-12-11T13:04:02.215Z,93.48
2022-12-11T13:06:32.956Z,93.47
2022-12-11T13:09:16.160Z,94.32
2022-12-11T13:11:43.653Z,93.24
2022-12-11T13:14:16.443Z,93.60
2022-12-11T13:16:45.035Z,93.63
2022-12-11T13:19:30.757Z,93.42
2022-12-11T13:22:06.405Z,93.65
2022-12-11T13:24:33.938Z,93.75
2022-12-11T13:27:12.175Z,93.53
2022-12-11T13:29:41.370Z,93.62
2022-12-11T13:32:07.842Z,93.69
2022-12-11T13:34:37.729Z,93.79
2022-12-11T13:37:06.200Z,93.73
2022-12-11T13:39:35.459Z,93.50
2022-12-11T13:42:07.649Z,93.63
2022-12-11T13:44:39.477Z,94.06
2022-12-11T13:47:11.800Z,94.03
2022-12-11T13:49:42.420Z,93.73
2022-12-11T13:52:18.885Z,93.88
2022-12-11T13:54:54.328Z,93.59
2022-12-11T13:57:23.372Z,93.82
2022-12-11T13:59:55.872Z,93.99
2022-12-11T14:02:33.815Z,94.09
2022-12-11T14:05:09.757Z,94.11
2022-12-11T14:07:54.982Z,94.19
2022-12-11T14:10:23.353Z,94.09
2022-12-11T14:13:21.084Z,93.80
2022-12-11T14:15:47.765Z,94.34
2022-12-11T14:18:24.050Z,94.59
2022-12-11T14:20:59.070Z,94.57
2022-12-11T14:23:28.177Z,94.49
2022-12-11T14:25:54.848Z,95.00
2022-12-11T14:28:23.316Z,94.74
2022-12-11T14:30:51.956Z,94.71
2022-12-11T14:33:23.100Z,94.48
2022-12-11T14:35:52.647Z,94.99
2022-12-11T14:38:44.477Z,94.85
2022-12-11T14:41:21.532Z,94.71
2022-12-11T14:43:59.095Z,94.79
2022-12-11T14:46:40.177Z,94.80
2022-12-11T14:49:18.009Z,95.16
2022-12-11T14:51:45.141Z,95.03
2022-12-11T14:54:22.673Z,95.07
2022-12-11T14:56:49.487Z,95.27
2022-12-11T14:59:28.317Z,95.77
2022-12-11T15:02:04.363Z,95.43
2022-12-11T15:04:33.249Z,95.59
2022-12-11T15:07:00.420Z,95.73
2022-12-11T15:09:36.801Z,95.96
2022-12-11T15:12:09.488Z,95.82
2022-12-11T15:14:36.649Z,95.57
2022-12-11T15:17:03.329Z,95.53
2022-12-11T15:19:32.573Z,95.76
2022-12-11T15:22:08.531Z,95.85
2022-12-11T15:24:43.319Z,95.77
2022-12-11T15:27:19.108Z,95.77
2022-12-11T15:29:45.630Z,95.55
2022-12-11T15:32:13.989Z,95.89
2022-12-11T15:34:45.287Z,95.93
2022-12-11T15:37:32.097Z,96.01
2022-12-11T15:40:01.752Z,95.98
2022-12-11T15:42:36.514Z,95.86
2022-12-11T15:45:06.769Z,96.27
2022-12-11T15:47:33.287Z,96.44
2022-12-11T15:50:03.390Z,95.89
2022-12-11T15:52:29.923Z,96.55
2022-12-11T15:54:56.375Z,96.47
2022-12-11T15:57:24.651Z,96.04
2022-12-11T15:59:54.244Z,96.27
2022-12-11T16:02:21.328Z,96.51
2022-12-11T16:04:47.841Z,96.35
2022-12-11T16:07:21.298Z,96.53
2022-12-11T16:09:48.094Z,96.68
2022-12-11T16:12:15.283Z,96.59
2022-12-11T16:14:42.683Z,96.51
2022-12-11T16:17:11.039Z,96.55
2022-12-11T16:19:37.613Z,96.53
2022-12-11T16:22:05.281Z,96.43
2022-12-11T16:24:33.009Z,96.50
2022-12-11T16:26:59.561Z,96.46
2022-12-11T16:29:26.469Z,96.38
2022-12-11T16:31:52.948Z,96.53
2022-12-11T16:34:19.396Z,96.58
2022-12-11T16:36:45.889Z,96.20
2022-12-11T16:39:13.600Z,96.27
2022-12-11T16:41:40.099Z,96.18
2022-12-11T16:44:06.722Z,96.50
2022-12-11T16:46:33.815Z,96.73
2022-12-11T16:49:00.416Z,96.72
2022-12-11T16:51:27.004Z,96.77
2022-12-11T16:53:53.610Z,96.45
2022-12-11T16:56:20.191Z,96.70
2022-12-11T16:58:47.619Z,96.65
2022-12-11T17:01:15.074Z,96.50
2022-12-11T17:03:43.149Z,96.65
2022-12-11T17:06:12.136Z,96.67
2022-12-11T17:08:39.290Z,96.58
2022-12-11T17:11:07.768Z,96.56
2022-12-11T17:13:36.310Z,96.42
2022-12-11T17:16:08.195Z,96.40
2022-12-11T17:18:35.092Z,96.25
2022-12-11T17:21:15.702Z,96.08
2022-12-11T17:23:43.165Z,96.11
2022-12-11T17:26:09.867Z,96.50
2022-12-11T17:28:38.091Z,96.54
2022-12-11T17:31:10.079Z,96.57
2022-12-11T17:33:36.696Z,96.00
2022-12-11T17:36:05.686Z,96.37
2022-12-11T17:38:32.193Z,96.32
2022-12-11T17:40:58.769Z,96.34
2022-12-11T17:43:25.400Z,96.48
2022-12-11T17:45:55.335Z,96.46
2022-12-11T17:48:22.811Z,96.41
2022-12-11T17:50:51.072Z,96.05
2022-12-11T17:53:19.452Z,96.32
2022-12-11T17:55:47.037Z,96.37
2022-12-11T17:58:19.088Z,96.08
2022-12-11T18:00:47.272Z,96.27
2022-12-11T18:03:14.208Z,96.41
2022-12-11T18:05:45.910Z,96.31
2022-12-11T18:08:16.901Z,96.58
2022-12-11T18:10:44.510Z,96.06
2022-12-11T18:13:11.917Z,96.59
2022-12-11T18:15:39.280Z,96.74
2022-12-11T18:18:07.070Z,96.09
2022-12-11T18:20:35.302Z,96.43
2022-12-11T18:23:02.409Z,96.73
2022-12-11T18:25:28.999Z,96.40
2022-12-11T18:27:55.729Z,96.45
2022-12-11T18:30:24.228Z,96.54
2022-12-11T18:32:50.904Z,95.87
2022-12-11T18:35:17.431Z,95.56
2022-12-11T18:37:44.059Z,95.49
2022-12-11T18:40:12.136Z,95.51
2022-12-11T18:42:38.933Z,95.67
2022-12-11T18:45:07.002Z,95.96
2022-12-11T18:47:33.573Z,95.69
2022-12-11T18:50:04.109Z,95.96
2022-12-11T18:52:34.190Z,95.80
2022-12-11T18:55:00.868Z,95.10
2022-12-11T18:57:27.436Z,95.32
2022-12-11T18:59:54.027Z,95.06
2022-12-11T19:02:20.915Z,94.84
2022-12-11T19:04:47.915Z,94.63
2022-12-11T19:07:14.596Z,94.40
2022-12-11T19:09:46.261Z,94.70
2022-12-11T19:12:14.684Z,94.82
2022-12-11T19:14:41.227Z,94.25
2022-12-11T19:17:07.902Z,94.42
2022-12-11T19:19:34.679Z,94.01
2022-12-11T19:22:01.414Z,94.04
2022-12-11T19:24:28.196Z,94.30
2022-12-11T19:26:54.615Z,94.30
2022-12-11T19:29:34.047Z,94.03
2022-12-11T19:32:04.623Z,93.85
2022-12-11T19:34:31.463Z,93.76
2022-12-11T19:36:58.088Z,93.69
2022-12-11T19:39:25.028Z,93.69
2022-12-11T19:41:51.442Z,93.49
2022-12-11T19:44:18.078Z,94.15
2022-12-11T19:46:44.725Z,93.94
2022-12-11T19:49:11.888Z,94.05
2022-12-11T19:51:40.269Z,93.95
2022-12-11T19:54:08.963Z,93.88
2022-12-11T19:56:35.708Z,93.74
2022-12-11T19:59:05.262Z,93.58
2022-12-11T20:01:33.767Z,93.53
2022-12-11T20:04:07.771Z,93.73
2022-12-11T20:06:36.262Z,93.55
2022-12-11T20:09:06.064Z,93.80
2022-12-11T20:11:33.446Z,93.05
2022-12-11T20:14:00.424Z,93.09
2022-12-11T20:16:46.395Z,93.19
2022-12-11T20:19:13.664Z,93.75
2022-12-11T20:21:40.314Z,93.58
2022-12-11T20:24:07.116Z,93.60
2022-12-11T20:26:36.392Z,93.61
2022-12-11T20:29:05.356Z,93.35
2022-12-11T20:31:33.084Z,93.62
2022-12-11T20:33:59.832Z,93.60
2022-12-11T20:36:26.726Z,93.95
2022-12-11T20:38:53.362Z,93.86
2022-12-11T20:41:23.354Z,94.17
2022-12-11T20:43:50.694Z,94.06
2022-12-11T20:46:18.545Z,94.01
2022-12-11T20:48:46.206Z,94.69
2022-12-11T20:51:14.705Z,94.38
2022-12-11T20:53:42.415Z,94.50
2022-12-11T20:56:18.380Z,94.30
2022-12-11T20:58:45.552Z,94.14
2022-12-11T21:01:16.747Z,94.35
2022-12-11T21:03:43.900Z,94.43
2022-12-11T21:06:21.446Z,94.61
2022-12-11T21:08:48.555Z,94.05
2022-12-11T21:11:15.152Z,94.53
2022-12-11T21:13:41.863Z,94.46
2022-12-11T21:16:09.054Z,94.11
2022-12-11T21:18:36.443Z,94.02
2022-12-11T21:21:03.651Z,93.82
2022-12-11T21:23:30.170Z,94.23
2022-12-11T21:25:56.716Z,93.94
2022-12-11T21:28:23.289Z,93.47
2022-12-11T21:30:49.897Z,94.14
2022-12-11T21:33:16.557Z,93.92
2022-12-11T21:35:43.436Z,93.68
2022-12-11T21:38:10.037Z,93.41
2022-12-11T21:40:36.680Z,93.54
2022-12-11T21:43:03.535Z,93.98
2022-12-11T21:48:16.913Z,94.00
2022-12-11T21:50:43.450Z,94.05
2022-12-11T21:53:10.072Z,93.85
2022-12-11T21:55:40.353Z,93.85
2022-12-11T21:58:06.961Z,94.13
2022-12-11T22:00:35.958Z,93.75
2022-12-11T22:03:02.603Z,93.94
2022-12-11T22:05:29.073Z,93.56
2022-12-11T22:07:55.601Z,93.81
2022-12-11T22:10:22.161Z,93.67
2022-12-11T22:12:48.658Z,93.99
2022-12-11T22:15:15.319Z,94.04
2022-12-11T22:17:41.824Z,93.89
2022-12-11T22:20:09.299Z,93.91
2022-12-11T22:22:35.811Z,94.20
2022-12-11T22:25:03.698Z,94.22
2022-12-11T22:27:30.215Z,94.59
2022-12-11T22:29:56.720Z,94.12
2022-12-11T22:32:23.397Z,93.97
2022-12-11T22:34:49.893Z,93.96
2022-12-11T22:37:16.392Z,94.25
2022-12-11T22:39:42.879Z,94.31
2022-12-11T22:42:09.417Z,94.19
2022-12-11T22:44:35.892Z,94.01
2022-12-11T22:47:02.433Z,94.22
2022-12-11T22:49:28.950Z,94.42
2022-12-11T22:51:57.298Z,94.10
2022-12-11T22:54:24.166Z,94.16
2022-12-11T22:56:50.590Z,94.54
2022-12-11T22:59:17.073Z,94.61
2022-12-11T23:01:43.689Z,94.35
2022-12-11T23:04:10.313Z,94.52
2022-12-11T23:06:37.367Z,94.73
2022-12-11T23:09:03.996Z,94.54
2022-12-11T23:11:34.931Z,94.53
2022-12-11T23:14:02.101Z,94.83
2022-12-11T23:16:28.769Z,94.88
2022-12-11T23:18:56.909Z,94.97
2022-12-11T23:21:25.095Z,95.14
2022-12-11T23:23:51.860Z,94.92
2022-12-11T23:26:19.221Z,95.23
2022-12-11T23:28:46.793Z,95.11
2022-12-11T23:31:14.447Z,94.96
2022-12-11T23:33:41.134Z,94.66
2022-12-11T23:36:08.262Z,94.86
2022-12-11T23:38:35.250Z,94.85
2022-12-11T23:41:02.752Z,95.14
2022-12-11T23:43:29.772Z,94.82
2022-12-11T23:45:56.378Z,94.93
2022-12-11T23:48:22.928Z,94.97
2022-12-11T23:50:49.387Z,95.13
2022-12-11T23:53:15.857Z,95.03
2022-12-11T23:55:44.572Z,94.89
2022-12-11T23:58:11.839Z,95.13
